createdAt,value
2022-11-15T00:00:47.618Z,4.20
2022-11-15T00:03:15.962Z,5.00
2022-11-15T00:05:43.262Z,5.50
2022-11-15T00:08:10.474Z,5.53
2022-11-15T00:10:38.076Z,5.23
2022-11-15T00:13:13.634Z,5.00
2022-11-15T00:15:41.536Z,6.20
2022-11-15T00:18:13.614Z,6.70
2022-11-15T00:20:40.466Z,4.63
2022-11-15T00:23:07.277Z,5.23
2022-11-15T00:25:34.287Z,5.70
2022-11-15T00:28:01.677Z,4.30
2022-11-15T00:30:29.042Z,5.13
2022-11-15T00:32:55.964Z,5.13
2022-11-15T00:35:23.366Z,4.50
2022-11-15T00:37:50.004Z,4.53
2022-11-15T00:40:16.994Z,4.37
2022-11-15T00:42:43.685Z,5.60
2022-11-15T00:45:10.876Z,3.67
2022-11-15T00:47:37.549Z,4.30
2022-11-15T00:50:05.204Z,4.47
2022-11-15T00:52:31.921Z,3.67
2022-11-15T00:54:58.554Z,4.27
2022-11-15T00:57:25.179Z,3.87
2022-11-15T00:59:51.841Z,4.40
2022-11-15T01:02:18.560Z,4.03
2022-11-15T01:04:45.245Z,5.07
2022-11-15T01:07:12.005Z,3.70
2022-11-15T01:09:38.734Z,4.10
2022-11-15T01:12:05.822Z,4.60
2022-11-15T01:14:32.501Z,4.10
2022-11-15T01:16:59.214Z,4.07
2022-11-15T01:19:25.937Z,3.23
2022-11-15T01:21:52.864Z,4.20
2022-11-15T01:24:19.621Z,3.87
2022-11-15T01:26:46.454Z,3.60
2022-11-15T01:29:13.445Z,3.90
2022-11-15T01:31:40.154Z,3.30
2022-11-15T01:34:07.050Z,3.67
2022-11-15T01:36:33.744Z,4.20
2022-11-15T01:39:00.665Z,3.80
2022-11-15T01:41:33.805Z,4.10
2022-11-15T01:44:37.303Z,4.03
2022-11-15T01:47:26.121Z,3.00
2022-11-15T01:50:04.233Z,4.40
2022-11-15T01:52:32.713Z,4.70
2022-11-15T01:55:14.872Z,5.30
2022-11-15T01:57:43.034Z,4.10
2022-11-15T02:00:10.498Z,4.30
2022-11-15T02:02:37.520Z,4.83
2022-11-15T02:05:04.893Z,3.80
2022-11-15T02:07:32.727Z,4.07
2022-11-15T02:10:20.885Z,3.70
2022-11-15T02:12:48.060Z,3.50
2022-11-15T02:15:15.036Z,4.53
2022-11-15T02:17:50.724Z,3.20
2022-11-15T02:20:35.912Z,3.80
2022-11-15T02:23:40.345Z,3.53
2022-11-15T02:26:22.052Z,4.47
2022-11-15T02:29:00.884Z,2.20
2022-11-15T02:31:29.964Z,2.97
2022-11-15T02:34:21.824Z,2.37
2022-11-15T02:37:11.909Z,3.07
2022-11-15T02:39:50.521Z,2.63
2022-11-15T02:43:06.945Z,2.40
2022-11-15T02:45:40.727Z,2.37
2022-11-15T02:48:08.549Z,3.50
2022-11-15T02:50:35.514Z,2.97
2022-11-15T02:53:02.236Z,2.30
2022-11-15T02:55:37.880Z,2.63
2022-11-15T02:58:29.352Z,2.93
2022-11-15T03:01:02.577Z,2.47
2022-11-15T03:03:50.245Z,2.33
2022-11-15T03:06:34.124Z,3.10
2022-11-15T03:09:08.879Z,3.17
2022-11-15T03:11:39.584Z,2.60
2022-11-15T03:14:27.973Z,2.60
2022-11-15T03:17:00.107Z,2.53
2022-11-15T03:19:47.334Z,2.87
2022-11-15T03:22:17.903Z,3.03
2022-11-15T03:24:46.954Z,2.90
2022-11-15T03:27:17.152Z,3.43
2022-11-15T03:29:52.004Z,2.87
2022-11-15T03:32:23.258Z,2.50
2022-11-15T03:35:10.920Z,2.30
2022-11-15T03:38:05.544Z,2.70
2022-11-15T03:40:40.636Z,2.20
2022-11-15T03:43:07.284Z,3.47
2022-11-15T03:45:38.506Z,2.10
2022-11-15T03:48:11.784Z,3.60
2022-11-15T03:50:38.444Z,2.83
2022-11-15T03:53:05.226Z,3.10
2022-11-15T03:55:33.491Z,3.57
2022-11-15T03:58:01.593Z,2.60
2022-11-15T04:00:29.084Z,2.80
2022-11-15T04:02:55.795Z,2.77
2022-11-15T04:05:22.627Z,2.57
2022-11-15T04:07:49.303Z,3.13
2022-11-15T04:10:16.546Z,3.07
2022-11-15T04:12:47.365Z,2.97
2022-11-15T04:15:19.803Z,3.20
2022-11-15T04:17:48.667Z,3.23
2022-11-15T04:20:37.593Z,3.30
2022-11-15T04:23:25.594Z,3.83
2022-11-15T04:25:53.517Z,3.37
2022-11-15T04:28:20.442Z,3.90
2022-11-15T04:30:47.336Z,2.97
2022-11-15T04:33:14.053Z,2.83
2022-11-15T04:35:41.135Z,3.80
2022-11-15T04:38:09.503Z,3.20
2022-11-15T04:40:37.404Z,3.33
2022-11-15T04:43:04.911Z,3.30
2022-11-15T04:45:31.832Z,3.30
2022-11-15T04:47:58.672Z,4.20
2022-11-15T04:50:26.646Z,3.77
2022-11-15T04:52:55.091Z,3.67
2022-11-15T04:55:22.063Z,3.33
2022-11-15T04:57:48.823Z,2.70
2022-11-15T05:00:17.822Z,4.00
2022-11-15T05:03:03.201Z,3.93
2022-11-15T05:05:29.933Z,2.97
2022-11-15T05:07:56.653Z,3.73
2022-11-15T05:10:23.343Z,2.50
2022-11-15T05:12:50.083Z,3.10
2022-11-15T05:15:16.861Z,2.50
2022-11-15T05:17:43.753Z,2.70
2022-11-15T05:20:11.315Z,3.50
2022-11-15T05:22:37.870Z,2.33
2022-11-15T05:25:05.269Z,2.80
2022-11-15T05:27:32.080Z,3.77
2022-11-15T05:29:58.669Z,3.63
2022-11-15T05:32:25.638Z,3.53
2022-11-15T05:34:52.650Z,4.87
2022-11-15T05:37:19.245Z,5.27
2022-11-15T05:39:46.122Z,5.30
2022-11-15T05:42:14.932Z,4.37
2022-11-15T05:44:44.351Z,4.97
2022-11-15T05:47:16.330Z,4.67
2022-11-15T05:49:44.890Z,4.27
2022-11-15T05:52:14.485Z,4.43
2022-11-15T05:54:41.423Z,4.93
2022-11-15T05:57:08.352Z,5.73
2022-11-15T05:59:35.695Z,5.50
2022-11-15T06:02:02.559Z,6.73
2022-11-15T06:04:29.602Z,5.90
2022-11-15T06:06:56.461Z,6.70
2022-11-15T06:09:23.243Z,5.17
2022-11-15T06:11:50.402Z,5.40
2022-11-15T06:14:17.121Z,6.27
2022-11-15T06:16:44.614Z,6.77
2022-11-15T06:19:11.376Z,6.93
2022-11-15T06:21:38.164Z,6.00
2022-11-15T06:24:06.207Z,4.83
2022-11-15T06:26:32.998Z,4.80
2022-11-15T06:28:59.776Z,4.53
2022-11-15T06:31:26.455Z,6.07
2022-11-15T06:33:53.227Z,6.70
2022-11-15T06:36:20.035Z,6.87
2022-11-15T06:38:46.784Z,5.93
2022-11-15T06:41:14.588Z,5.60
2022-11-15T06:43:41.846Z,6.53
2022-11-15T06:46:08.797Z,6.40
2022-11-15T06:48:36.155Z,7.50
2022-11-15T06:51:04.138Z,6.03
2022-11-15T06:53:31.579Z,6.70
2022-11-15T06:56:03.142Z,7.30
2022-11-15T06:58:30.333Z,6.10
2022-11-15T07:01:02.088Z,7.10
2022-11-15T07:03:29.178Z,6.87
2022-11-15T07:05:58.503Z,8.00
2022-11-15T07:08:29.685Z,7.03
2022-11-15T07:11:00.655Z,6.23
2022-11-15T07:13:28.085Z,4.93
2022-11-15T07:15:54.807Z,6.27
2022-11-15T07:18:21.995Z,7.07
2022-11-15T07:20:48.735Z,6.10
2022-11-15T07:23:15.544Z,4.87
2022-11-15T07:25:42.315Z,4.60
2022-11-15T07:28:09.286Z,3.40
2022-11-15T07:30:38.972Z,2.70
2022-11-15T07:33:09.278Z,2.90
2022-11-15T07:35:35.984Z,3.37
2022-11-15T07:38:03.986Z,2.70
2022-11-15T07:40:32.844Z,2.63
2022-11-15T07:43:03.759Z,2.70
2022-11-15T07:45:30.986Z,2.90
2022-11-15T07:47:58.115Z,3.73
2022-11-15T07:50:25.776Z,5.20
2022-11-15T07:52:56.796Z,4.90
2022-11-15T07:55:28.277Z,7.57
2022-11-15T07:58:01.617Z,12.60
2022-11-15T08:00:28.515Z,9.23
2022-11-15T08:03:05.658Z,7.93
2022-11-15T08:05:32.916Z,7.30
2022-11-15T08:07:59.767Z,7.33
2022-11-15T08:10:27.357Z,6.50
2022-11-15T08:13:00.987Z,6.00
2022-11-15T08:15:28.378Z,7.60
2022-11-15T08:17:59.637Z,6.70
2022-11-15T08:20:27.875Z,7.07
2022-11-15T08:22:54.730Z,5.33
2022-11-15T08:25:21.427Z,5.63
2022-11-15T08:27:48.116Z,5.30
2022-11-15T08:30:17.090Z,6.27
2022-11-15T08:32:43.898Z,5.33
2022-11-15T08:35:10.637Z,6.10
2022-11-15T08:37:37.897Z,6.20
2022-11-15T08:40:05.416Z,6.67
2022-11-15T08:42:32.167Z,6.90
2022-11-15T08:44:58.967Z,5.60
2022-11-15T08:47:25.837Z,6.40
2022-11-15T08:49:53.195Z,4.53
2022-11-15T08:52:20.137Z,6.53
2022-11-15T08:54:46.842Z,5.70
2022-11-15T08:57:13.592Z,6.23
2022-11-15T08:59:40.307Z,5.30
2022-11-15T09:02:07.356Z,6.57
2022-11-15T09:04:34.305Z,5.07
2022-11-15T09:07:01.071Z,4.90
2022-11-15T09:09:27.855Z,5.63
2022-11-15T09:11:59.500Z,5.97
2022-11-15T09:14:28.014Z,6.93
2022-11-15T09:16:54.759Z,6.20
2022-11-15T09:19:21.746Z,6.70
2022-11-15T09:21:48.636Z,6.30
2022-11-15T09:24:15.337Z,8.57
2022-11-15T09:26:42.336Z,10.70
2022-11-15T09:29:09.057Z,12.30
2022-11-15T09:31:35.814Z,15.07
2022-11-15T09:34:02.562Z,11.93
2022-11-15T09:36:29.465Z,11.67
2022-11-15T09:38:56.146Z,11.20
2022-11-15T09:42:07.154Z,10.83
2022-11-15T09:44:44.296Z,11.87
2022-11-15T09:47:16.724Z,10.53
2022-11-15T09:49:43.564Z,10.77
2022-11-15T09:52:11.589Z,11.23
2022-11-15T09:54:53.191Z,9.60
2022-11-15T09:57:43.088Z,6.23
2022-11-15T10:03:14.557Z,7.00
2022-11-15T10:05:47.049Z,7.70
2022-11-15T10:08:50.156Z,6.87
2022-11-15T10:11:39.760Z,7.20
2022-11-15T10:14:25.904Z,7.30
2022-11-15T10:17:26.730Z,10.10
2022-11-15T10:20:13.993Z,9.60
2022-11-15T10:22:55.945Z,8.13
2022-11-15T10:25:30.525Z,7.70
2022-11-15T10:28:00.019Z,8.50
2022-11-15T10:30:54.113Z,9.80
2022-11-15T10:33:28.533Z,9.43
2022-11-15T10:36:10.797Z,10.57
2022-11-15T10:38:49.366Z,10.50
2022-11-15T10:41:24.477Z,10.37
2022-11-15T10:44:17.781Z,10.03
2022-11-15T10:46:57.774Z,9.30
2022-11-15T10:49:26.986Z,8.70
2022-11-15T10:52:16.646Z,10.93
2022-11-15T10:54:49.633Z,10.60
2022-11-15T10:57:48.029Z,11.63
2022-11-15T11:00:20.884Z,9.10
2022-11-15T11:02:58.422Z,10.30
2022-11-15T11:05:41.835Z,10.50
2022-11-15T11:08:12.443Z,11.37
2022-11-15T11:11:00.102Z,12.97
2022-11-15T11:13:28.761Z,9.70
2022-11-15T11:16:15.344Z,9.23
2022-11-15T11:19:05.934Z,10.17
2022-11-15T11:22:10.846Z,9.03
2022-11-15T11:24:40.275Z,9.50
2022-11-15T11:27:27.178Z,11.80
2022-11-15T11:30:17.276Z,12.53
2022-11-15T11:33:02.416Z,11.00
2022-11-15T11:36:03.946Z,10.83
2022-11-15T11:38:51.359Z,11.87
2022-11-15T11:41:34.124Z,13.83
2022-11-15T11:44:24.665Z,10.00
2022-11-15T11:47:13.668Z,9.10
2022-11-15T11:49:53.681Z,14.60
2022-11-15T11:52:32.432Z,9.33
2022-11-15T11:55:07.275Z,7.87
2022-11-15T11:57:49.943Z,7.67
2022-11-15T12:00:28.733Z,14.00
2022-11-15T12:03:09.592Z,7.10
2022-11-15T12:05:41.193Z,6.93
2022-11-15T12:08:26.660Z,6.00
2022-11-15T12:11:19.725Z,7.83
2022-11-15T12:13:49.117Z,7.77
2022-11-15T12:16:23.153Z,7.17
2022-11-15T12:18:52.265Z,8.00
2022-11-15T12:21:28.140Z,7.10
2022-11-15T12:24:00.524Z,8.00
2022-11-15T12:26:33.583Z,8.60
2022-11-15T12:29:08.471Z,7.43
2022-11-15T12:31:35.690Z,5.80
2022-11-15T12:34:07.497Z,6.80
2022-11-15T12:36:43.076Z,6.10
2022-11-15T12:39:13.915Z,5.93
2022-11-15T12:41:46.009Z,6.47
2022-11-15T12:44:14.993Z,6.27
2022-11-15T12:46:41.755Z,7.17
2022-11-15T12:49:28.667Z,10.20
2022-11-15T12:52:05.063Z,6.13
2022-11-15T12:54:37.696Z,5.57
2022-11-15T12:57:04.403Z,7.00
2022-11-15T12:59:54.278Z,5.90
2022-11-15T13:02:26.988Z,10.37
2022-11-15T13:04:56.875Z,6.20
2022-11-15T13:07:41.781Z,6.37
2022-11-15T13:10:11.707Z,7.40
2022-11-15T13:12:47.692Z,6.33
2022-11-15T13:15:14.390Z,5.40
2022-11-15T13:17:48.785Z,5.97
2022-11-15T13:20:15.607Z,5.17
2022-11-15T13:23:00.098Z,6.53
2022-11-15T13:25:54.147Z,5.97
2022-11-15T13:28:32.699Z,5.50
2022-11-15T13:31:02.242Z,6.03
2022-11-15T13:33:36.895Z,5.80
2022-11-15T13:36:07.631Z,5.00
2022-11-15T13:38:36.979Z,5.43
2022-11-15T13:41:21.344Z,5.20
2022-11-15T13:43:51.606Z,5.63
2022-11-15T13:46:34.442Z,5.33
2022-11-15T13:49:01.139Z,6.77
2022-11-15T13:51:41.077Z,5.00
2022-11-15T13:54:19.128Z,6.57
2022-11-15T13:56:53.133Z,5.20
2022-11-15T13:59:28.796Z,5.20
2022-11-15T14:01:57.741Z,5.93
2022-11-15T14:04:26.875Z,6.70
2022-11-15T14:06:57.420Z,4.87
2022-11-15T14:09:32.542Z,6.63
2022-11-15T14:11:59.965Z,5.03
2022-11-15T14:14:28.533Z,5.17
2022-11-15T14:17:00.317Z,7.10
2022-11-15T14:19:27.231Z,6.77
2022-11-15T14:22:41.771Z,9.07
2022-11-15T14:25:08.615Z,4.83
2022-11-15T14:27:35.535Z,5.50
2022-11-15T14:30:02.367Z,6.23
2022-11-15T14:32:31.314Z,7.17
2022-11-15T14:35:03.042Z,6.93
2022-11-15T14:37:35.838Z,6.43
2022-11-15T14:40:04.713Z,6.70
2022-11-15T14:42:31.484Z,5.30
2022-11-15T14:44:58.209Z,5.40
2022-11-15T14:47:24.935Z,5.17
2022-11-15T14:49:51.748Z,4.97
2022-11-15T14:52:32.500Z,5.03
2022-11-15T14:55:00.334Z,5.33
2022-11-15T14:57:27.045Z,4.93
2022-11-15T14:59:54.085Z,6.87
2022-11-15T15:02:26.335Z,6.73
2022-11-15T15:04:53.213Z,4.90
2022-11-15T15:07:20.421Z,5.97
2022-11-15T15:09:47.280Z,4.67
2022-11-15T15:12:18.275Z,5.27
2022-11-15T15:14:45.631Z,5.00
2022-11-15T15:17:12.356Z,5.20
2022-11-15T15:19:39.115Z,5.20
2022-11-15T15:22:06.223Z,5.63
2022-11-15T15:24:33.276Z,4.37
2022-11-15T15:26:59.966Z,4.80
2022-11-15T15:29:26.706Z,4.73
2022-11-15T15:31:53.447Z,4.97
2022-11-15T15:34:20.177Z,6.00
2022-11-15T15:36:46.837Z,4.40
2022-11-15T15:39:13.653Z,3.97
2022-11-15T15:41:40.426Z,4.70
2022-11-15T15:44:07.557Z,4.80
2022-11-15T15:46:35.383Z,4.97
2022-11-15T15:49:02.194Z,4.73
2022-11-15T15:51:28.904Z,5.13
2022-11-15T15:53:58.248Z,4.47
2022-11-15T15:56:25.105Z,5.23
2022-11-15T15:58:53.635Z,4.47
2022-11-15T16:01:20.546Z,4.67
2022-11-15T16:03:47.887Z,5.30
2022-11-15T16:06:45.548Z,4.93
2022-11-15T16:09:17.097Z,6.20
2022-11-15T16:11:46.562Z,6.27
2022-11-15T16:14:13.615Z,5.23
2022-11-15T16:16:40.401Z,6.30
2022-11-15T16:19:07.176Z,4.63
2022-11-15T16:21:33.825Z,4.40
2022-11-15T16:24:00.951Z,6.50
2022-11-15T16:26:29.599Z,4.90
2022-11-15T16:28:56.465Z,4.80
2022-11-15T16:31:23.315Z,5.47
2022-11-15T16:33:50.280Z,7.23
2022-11-15T16:36:29.830Z,7.53
2022-11-15T16:38:56.943Z,6.77
2022-11-15T16:41:23.575Z,8.27
2022-11-15T16:43:50.437Z,7.20
2022-11-15T16:46:22.159Z,5.40
2022-11-15T16:48:49.444Z,5.63
2022-11-15T16:51:16.496Z,4.80
2022-11-15T16:53:43.575Z,5.63
2022-11-15T16:56:21.443Z,6.00
2022-11-15T16:58:48.215Z,6.07
2022-11-15T17:01:20.370Z,8.37
2022-11-15T17:03:47.406Z,8.10
2022-11-15T17:06:15.226Z,7.50
2022-11-15T17:08:42.104Z,7.40
2022-11-15T17:11:08.996Z,6.53
2022-11-15T17:13:35.786Z,6.50
2022-11-15T17:16:07.463Z,11.83
2022-11-15T17:18:35.212Z,14.97
2022-11-15T17:21:12.266Z,9.77
2022-11-15T17:23:39.043Z,10.17
2022-11-15T17:26:31.947Z,13.53
2022-11-15T17:28:57.310Z,12.20
2022-11-15T17:31:25.539Z,13.63
2022-11-15T17:33:52.243Z,10.30
2022-11-15T17:36:18.976Z,13.63
2022-11-15T17:38:50.436Z,18.13
2022-11-15T17:41:17.336Z,15.57
2022-11-15T17:43:44.157Z,9.53
2022-11-15T17:46:16.046Z,10.40
2022-11-15T17:48:43.717Z,8.03
2022-11-15T17:51:15.987Z,9.10
2022-11-15T17:53:47.716Z,7.40
2022-11-15T17:56:22.747Z,7.30
2022-11-15T17:58:57.631Z,8.10
2022-11-15T18:01:35.058Z,7.30
2022-11-15T18:04:03.697Z,8.37
2022-11-15T18:06:33.445Z,8.43
2022-11-15T18:09:00.627Z,14.67
2022-11-15T18:11:41.768Z,9.23
2022-11-15T18:14:13.314Z,7.70
2022-11-15T18:16:40.518Z,9.63
2022-11-15T18:19:13.006Z,11.23
2022-11-15T18:21:57.257Z,9.27
2022-11-15T18:24:35.287Z,8.20
2022-11-15T18:27:03.624Z,7.37
2022-11-15T18:29:30.732Z,8.70
2022-11-15T18:31:58.899Z,8.50
2022-11-15T18:34:32.223Z,7.97
2022-11-15T18:36:59.436Z,15.07
2022-11-15T18:39:26.186Z,14.10
2022-11-15T18:41:53.020Z,11.13
2022-11-15T18:44:19.771Z,9.27
2022-11-15T18:46:47.005Z,15.10
2022-11-15T18:49:15.276Z,13.03
2022-11-15T18:51:42.520Z,10.00
2022-11-15T18:54:11.056Z,10.10
2022-11-15T18:56:38.297Z,9.33
2022-11-15T18:59:05.473Z,8.23
2022-11-15T19:01:37.728Z,5.53
2022-11-15T19:04:13.392Z,7.03
2022-11-15T19:06:42.359Z,9.13
2022-11-15T19:09:10.323Z,6.40
2022-11-15T19:11:42.182Z,7.90
2022-11-15T19:14:10.966Z,7.10
2022-11-15T19:16:44.913Z,6.27
2022-11-15T19:19:17.214Z,6.07
2022-11-15T19:21:44.437Z,5.90
2022-11-15T19:24:11.268Z,6.93
2022-11-15T19:26:38.564Z,6.07
2022-11-15T19:29:06.680Z,5.57
2022-11-15T19:31:34.042Z,6.60
2022-11-15T19:34:04.305Z,5.00
2022-11-15T19:36:33.006Z,4.80
2022-11-15T19:39:05.085Z,4.40
2022-11-15T19:41:32.252Z,5.50
2022-11-15T19:43:59.093Z,6.07
2022-11-15T19:46:26.964Z,5.70
2022-11-15T19:48:54.436Z,5.97
2022-11-15T19:51:23.476Z,5.10
2022-11-15T19:53:52.919Z,4.90
2022-11-15T19:56:19.868Z,5.30
2022-11-15T19:58:47.306Z,4.97
2022-11-15T20:01:20.513Z,6.00
2022-11-15T20:03:48.370Z,5.20
2022-11-15T20:06:17.816Z,5.50
2022-11-15T20:08:45.343Z,6.30
2022-11-15T20:11:12.988Z,6.20
2022-11-15T20:13:40.242Z,5.83
2022-11-15T20:16:07.882Z,6.80
2022-11-15T20:18:35.094Z,6.97
2022-11-15T20:21:03.160Z,5.77
2022-11-15T20:23:30.687Z,5.37
2022-11-15T20:25:57.344Z,5.90
2022-11-15T20:28:25.920Z,5.97
2022-11-15T20:30:57.887Z,6.70
2022-11-15T20:33:25.366Z,6.77
2022-11-15T20:35:52.155Z,5.83
2022-11-15T20:38:19.200Z,5.97
2022-11-15T20:40:46.411Z,6.27
2022-11-15T20:43:16.001Z,5.70
2022-11-15T20:45:47.400Z,6.77
2022-11-15T20:48:14.108Z,5.57
2022-11-15T20:50:43.460Z,5.57
2022-11-15T20:53:12.162Z,7.23
2022-11-15T20:55:42.721Z,7.03
2022-11-15T20:58:10.565Z,8.23
2022-11-15T21:00:37.613Z,7.77
2022-11-15T21:03:08.310Z,7.90
2022-11-15T21:05:37.630Z,6.67
2022-11-15T21:08:04.471Z,8.00
2022-11-15T21:10:49.843Z,6.67
2022-11-15T21:13:16.466Z,7.73
2022-11-15T21:15:43.088Z,8.47
2022-11-15T21:18:09.731Z,7.70
2022-11-15T21:20:36.395Z,7.70
2022-11-15T21:23:03.471Z,9.70
2022-11-15T21:25:30.227Z,7.53
2022-11-15T21:27:56.825Z,7.40
2022-11-15T21:30:23.446Z,6.80
2022-11-15T21:32:50.229Z,8.10
2022-11-15T21:35:17.280Z,7.47
2022-11-15T21:37:43.902Z,7.00
2022-11-15T21:40:11.407Z,5.27
2022-11-15T21:42:37.958Z,5.50
2022-11-15T21:45:05.086Z,7.10
2022-11-15T21:47:31.832Z,6.90
2022-11-15T21:49:58.596Z,6.43
2022-11-15T21:52:25.266Z,6.57
2022-11-15T21:54:51.864Z,5.57
2022-11-15T21:57:19.665Z,6.33
2022-11-15T22:00:04.526Z,6.30
2022-11-15T22:02:31.232Z,6.40
2022-11-15T22:04:57.794Z,6.70
2022-11-15T22:07:24.388Z,5.93
2022-11-15T22:09:51.200Z,5.50
2022-11-15T22:12:17.788Z,4.57
2022-11-15T22:14:44.350Z,5.23
2022-11-15T22:17:11.326Z,5.30
2022-11-15T22:19:51.569Z,5.17
2022-11-15T22:22:19.168Z,5.03
2022-11-15T22:24:45.780Z,5.20
2022-11-15T22:27:12.473Z,5.53
2022-11-15T22:29:39.095Z,5.87
2022-11-15T22:32:05.805Z,4.97
2022-11-15T22:34:32.432Z,4.63
2022-11-15T22:37:19.887Z,4.73
2022-11-15T22:39:45.705Z,6.63
2022-11-15T22:42:13.440Z,5.03
2022-11-15T22:44:40.063Z,6.50
2022-11-15T22:47:06.888Z,4.60
2022-11-15T22:49:33.492Z,4.40
2022-11-15T22:52:00.152Z,7.20
2022-11-15T22:54:26.959Z,4.83
2022-11-15T22:56:53.686Z,4.87
2022-11-15T22:59:20.293Z,5.27
2022-11-15T23:01:46.964Z,4.50
2022-11-15T23:04:13.630Z,4.67
2022-11-15T23:06:40.243Z,5.47
2022-11-15T23:09:07.106Z,5.50
2022-11-15T23:11:52.240Z,5.97
2022-11-15T23:14:18.874Z,4.43
2022-11-15T23:16:45.548Z,4.70
2022-11-15T23:19:12.824Z,4.37
2022-11-15T23:22:03.022Z,5.80
2022-11-15T23:24:32.092Z,4.90
2022-11-15T23:27:01.548Z,5.13
2022-11-15T23:29:28.840Z,5.83
2022-11-15T23:32:14.385Z,5.10
2022-11-15T23:34:43.926Z,7.03
2022-11-15T23:37:13.657Z,6.90
2022-11-15T23:39:40.355Z,8.67
2022-11-15T23:42:09.321Z,10.30
2022-11-15T23:44:36.774Z,7.60
2022-11-15T23:47:03.495Z,8.40
2022-11-15T23:49:30.097Z,10.40
2022-11-15T23:51:56.711Z,9.10
2022-11-15T23:54:23.350Z,10.00
2022-11-15T23:56:49.960Z,8.37
2022-11-15T23:59:16.720Z,7.73
